| time (UTC) | temp F | wind direction | speed MPH | gust MPH | rain 1hr in | rain 24hr in | rain mn in | humidity % | barometer mb |
| 20260905173003 | 59 | 148 | 2.0 | 5.0 | 0.00 | 0.02 | 0.01 | 96 | 1012.7 |
| 20260905171501 | 58 | 202 | 1.0 | 4.0 | 0.00 | 0.02 | 0.01 | 97 | 1012.7 |
| 20260905170100 | 57 | 202 | 0.0 | 2.0 | 0.00 | 0.02 | 0.01 | 97 | 1012.5 |
| 20260905164558 | 56 | 202 | 0.0 | 0.0 | 0.00 | 0.02 | 0.01 | 97 | 1012.6 |
| 20260905163058 | 56 | 202 | 0.0 | 1.0 | 0.00 | 0.02 | 0.01 | 97 | 1012.7 |
| 20260905161553 | 55 | 202 | 0.0 | 0.0 | 0.00 | 0.02 | 0.01 | 97 | 1012.7 |
| 20260905160049 | 54 | 202 | 0.0 | 0.0 | 0.00 | 0.02 | 0.01 | 97 | 1012.9 |
| 20260905154601 | 53 | 202 | 0.0 | 0.0 | 0.00 | 0.03 | 0.01 | 97 | 1012.8 |
| 20260905153047 | 52 | 202 | 0.0 | 0.0 | 0.00 | 0.03 | 0.01 | 97 | 1012.9 |
| 20260905151543 | 51 | 202 | 0.0 | 0.0 | 0.00 | 0.03 | 0.01 | 96 | 1013.1 |
| 20260905150041 | 51 | 207 | 0.0 | 0.0 | 0.01 | 0.03 | 0.01 | 96 | 1013.0 |
| 20260905144538 | 50 | 207 | 0.0 | 0.0 | 0.01 | 0.03 | 0.01 | 96 | 1013.1 |
| 20260905143038 | 50 | 207 | 0.0 | 0.0 | 0.01 | 0.03 | 0.01 | 96 | 1013.0 |
| 20260905141530 | 50 | 206 | 0.0 | 0.0 | 0.01 | 0.03 | 0.01 | 96 | 1013.0 |
| 20260905140029 | 50 | 207 | 0.0 | 0.0 | 0.00 | 0.02 | 0.00 | 96 | 1012.9 |
| 20260905134540 | 50 | 207 | 0.0 | 0.0 | 0.00 | 0.02 | 0.00 | 96 | 1012.9 |
| 20260905133026 | 50 | 207 | 0.0 | 0.0 | 0.00 | 0.02 | 0.00 | 96 | 1012.8 |
| 20260905131525 | 50 | 207 | 0.0 | 0.0 | 0.00 | 0.02 | 0.00 | 96 | 1012.7 |
| 20260905130024 | 50 | 207 | 0.0 | 1.0 | 0.00 | 0.02 | 0.00 | 96 | 1012.6 |
| 20260905124524 | 50 | 207 | 0.0 | 1.0 | 0.00 | 0.22 | 0.00 | 96 | 1012.7 |
| 20260905123021 | 51 | 207 | 0.0 | 1.0 | 0.00 | 0.22 | 0.00 | 96 | 1012.7 |
| 20260905121520 | 51 | 207 | 0.0 | 0.0 | 0.00 | 0.22 | 0.00 | 96 | 1012.9 |
| 20260905120025 | 51 | 207 | 0.0 | 0.0 | 0.00 | 0.22 | 0.00 | 96 | 1013.0 |
| 20260905114518 | 51 | 207 | 0.0 | 0.0 | 0.00 | 0.38 | 0.00 | 96 | 1012.9 |
| 20260905113017 | 51 | 207 | 0.0 | 0.0 | 0.00 | 0.38 | 0.00 | 96 | 1012.8 |
| 20260905111516 | 51 | 207 | 0.0 | 0.0 | 0.00 | 0.38 | 0.00 | 96 | 1012.9 |
| 20260905110019 | 51 | 207 | 0.0 | 0.0 | 0.00 | 0.38 | 0.00 | 96 | 1012.9 |
| 20260905104515 | 52 | 207 | 0.0 | 0.0 | 0.00 | 0.41 | 0.00 | 96 | 1012.9 |
| 20260905103013 | 52 | 207 | 0.0 | 0.0 | 0.00 | 0.41 | 0.00 | 96 | 1012.9 |
| 20260905101513 | 52 | 207 | 0.0 | 0.0 | 0.00 | 0.41 | 0.00 | 96 | 1012.8 |
| 20260905100012 | 52 | 207 | 0.0 | 0.0 | 0.00 | 0.41 | 0.00 | 96 | 1012.9 |
| 20260905094513 | 52 | 207 | 0.0 | 0.0 | 0.00 | 0.41 | 0.00 | 96 | 1013.0 |
| 20260905093010 | 52 | 207 | 0.0 | 0.0 | 0.00 | 0.41 | 0.00 | 95 | 1012.8 |
| 20260905091509 | 52 | 207 | 0.0 | 0.0 | 0.00 | 0.41 | 0.00 | 95 | 1012.8 |
| 20260905090009 | 53 | 207 | 0.0 | 0.0 | 0.00 | 0.41 | 0.00 | 95 | 1012.7 |
| 20260905084506 | 53 | 207 | 0.0 | 0.0 | 0.00 | 0.41 | 0.00 | 95 | 1012.8 |
| 20260905083010 | 53 | 207 | 0.0 | 0.0 | 0.00 | 0.41 | 0.00 | 95 | 1012.9 |
| 20260905081503 | 53 | 207 | 0.0 | 0.0 | 0.00 | 0.41 | 0.00 | 95 | 1012.9 |
| 20260905080006 | 53 | 207 | 0.0 | 0.0 | 0.00 | 0.41 | 0.00 | 95 | 1012.9 |
| 20260905074502 | 53 | 207 | 0.0 | 0.0 | 0.00 | 0.41 | 0.00 | 95 | 1013.0 |
| 20260905073002 | 53 | 207 | 0.0 | 0.0 | 0.00 | 0.41 | 0.00 | 95 | 1012.9 |
| 20260905071606 | 53 | 207 | 0.0 | 0.0 | 0.00 | 0.41 | 0.00 | 95 | 1013.0 |
| 20260905070058 | 53 | 207 | 0.0 | 1.0 | 0.00 | 0.41 | 0.00 | 95 | 1012.8 |
| 20260905064557 | 53 | 207 | 0.0 | 1.0 | 0.00 | 0.41 | 0.41 | 95 | 1012.6 |
| 20260905063057 | 53 | 207 | 0.0 | 1.0 | 0.00 | 0.41 | 0.41 | 95 | 1012.6 |
| 20260905061607 | 53 | 207 | 0.0 | 1.0 | 0.00 | 0.41 | 0.41 | 95 | 1012.8 |
| 20260905060059 | 53 | 207 | 0.0 | 0.0 | 0.00 | 0.41 | 0.41 | 94 | 1012.8 |
| 20260905054555 | 54 | 207 | 0.0 | 1.0 | 0.00 | 0.41 | 0.41 | 94 | 1012.8 |
| 20260905053053 | 54 | 207 | 0.0 | 1.0 | 0.00 | 0.41 | 0.41 | 94 | 1012.8 |
| 20260905051550 | 54 | 207 | 0.0 | 1.0 | 0.00 | 0.41 | 0.41 | 94 | 1012.8 |
| 20260905050049 | 55 | 207 | 0.0 | 1.0 | 0.00 | 0.41 | 0.41 | 94 | 1012.5 |
| 20260905044547 | 55 | 207 | 0.0 | 1.0 | 0.00 | 0.41 | 0.41 | 94 | 1012.7 |
| 20260905043056 | 55 | 207 | 0.0 | 1.0 | 0.00 | 0.41 | 0.41 | 94 | 1012.8 |
| 20260905041546 | 56 | 207 | 0.0 | 1.0 | 0.00 | 0.41 | 0.41 | 93 | 1012.8 |
| 20260905040054 | 56 | 207 | 0.0 | 0.0 | 0.00 | 0.41 | 0.41 | 93 | 1012.8 |
| 20260905034543 | 57 | 207 | 0.0 | 0.0 | 0.00 | 0.41 | 0.41 | 93 | 1012.7 |
| 20260905033047 | 57 | 207 | 0.0 | 0.0 | 0.00 | 0.41 | 0.41 | 92 | 1012.5 |
| 20260905031548 | 58 | 207 | 0.0 | 1.0 | 0.00 | 0.41 | 0.41 | 92 | 1012.5 |
| 20260905030041 | 58 | 207 | 0.0 | 0.0 | 0.00 | 0.41 | 0.41 | 92 | 1012.4 |
| 20260905024541 | 59 | 207 | 0.0 | 1.0 | 0.00 | 0.41 | 0.41 | 91 | 1012.5 |
| 20260905023041 | 60 | 207 | 0.0 | 0.0 | 0.00 | 0.41 | 0.41 | 90 | 1012.6 |
| 20260905021540 | 61 | 207 | 0.0 | 2.0 | 0.00 | 0.41 | 0.41 | 90 | 1012.5 |
| 20260905020047 | 61 | 207 | 0.0 | 1.0 | 0.00 | 0.41 | 0.41 | 88 | 1012.5 |
| 20260905014538 | 61 | 207 | 0.0 | 2.0 | 0.00 | 0.41 | 0.41 | 87 | 1012.4 |
| 20260905013046 | 62 | 207 | 0.0 | 3.0 | 0.00 | 0.41 | 0.41 | 85 | 1012.3 |
| 20260905011605 | 63 | 211 | 1.0 | 3.0 | 0.00 | 0.41 | 0.41 | 83 | 1012.2 |
| 20260905010036 | 63 | 212 | 0.0 | 2.0 | 0.00 | 0.41 | 0.41 | 84 | 1012.2 |
| 20260905004536 | 64 | 186 | 1.0 | 3.0 | 0.00 | 0.41 | 0.41 | 82 | 1012.2 |
| 20260905003037 | 64 | 236 | 1.0 | 3.0 | 0.00 | 0.41 | 0.41 | 84 | 1012.2 |
| 20260905001543 | 63 | 212 | 1.0 | 5.0 | 0.00 | 0.41 | 0.41 | 83 | 1012.3 |
| 20260905000033 | 64 | 219 | 1.0 | 4.0 | 0.00 | 0.41 | 0.41 | 83 | 1012.2 |
| 20260904234536 | 66 | 254 | 1.0 | 5.0 | 0.00 | 0.41 | 0.41 | 80 | 1012.2 |
| 20260904233032 | 68 | 230 | 3.0 | 10.0 | 0.00 | 0.41 | 0.41 | 79 | 1012.1 |
| 20260904231532 | 69 | 177 | 4.0 | 10.0 | 0.00 | 0.41 | 0.41 | 79 | 1012.0 |
| 20260904230029 | 67 | 189 | 2.0 | 8.0 | 0.00 | 0.41 | 0.41 | 86 | 1012.0 |
| 20260904224527 | 63 | 227 | 3.0 | 7.0 | 0.00 | 0.41 | 0.41 | 87 | 1012.2 |
| 20260904223027 | 63 | 243 | 4.0 | 8.0 | 0.00 | 0.41 | 0.41 | 86 | 1012.0 |
| 20260904221523 | 65 | 197 | 4.0 | 9.0 | 0.00 | 0.41 | 0.41 | 84 | 1011.8 |
| 20260904220019 | 64 | 183 | 4.0 | 9.0 | 0.00 | 0.41 | 0.41 | 87 | 1011.8 |
| 20260904214616 | 62 | 209 | 3.0 | 7.0 | 0.00 | 0.41 | 0.41 | 88 | 1011.7 |
| 20260904213016 | 63 | 219 | 2.0 | 7.0 | 0.00 | 0.41 | 0.41 | 89 | 1011.7 |
| 20260904211514 | 62 | 219 | 3.0 | 7.0 | 0.00 | 0.41 | 0.41 | 89 | 1011.4 |
| 20260904210013 | 62 | 229 | 0.0 | 4.0 | 0.00 | 0.41 | 0.41 | 91 | 1011.6 |
| 20260904204510 | 60 | 245 | 0.0 | 3.0 | 0.01 | 0.41 | 0.41 | 91 | 1011.7 |
| 20260904203015 | 61 | 227 | 2.0 | 4.0 | 0.01 | 0.41 | 0.41 | 91 | 1011.7 |
| 20260904201507 | 60 | 223 | 2.0 | 4.0 | 0.01 | 0.41 | 0.41 | 91 | 1011.5 |
| 20260904200007 | 60 | 232 | 0.0 | 4.0 | 0.01 | 0.41 | 0.41 | 90 | 1011.5 |
| 20260904194507 | 60 | 169 | 1.0 | 5.0 | 0.00 | 0.40 | 0.40 | 90 | 1011.5 |
| 20260904193008 | 61 | 236 | 1.0 | 9.0 | 0.00 | 0.40 | 0.40 | 89 | 1011.4 |
| 20260904191505 | 61 | 200 | 1.0 | 6.0 | 0.00 | 0.40 | 0.40 | 89 | 1011.3 |
| 20260904190006 | 60 | 227 | 1.0 | 6.0 | 0.00 | 0.40 | 0.40 | 89 | 1011.4 |
| 20260904184503 | 60 | 251 | 1.0 | 4.0 | 0.00 | 0.40 | 0.40 | 90 | 1011.2 |
| 20260904183002 | 60 | 201 | 0.0 | 3.0 | 0.00 | 0.40 | 0.40 | 90 | 1011.2 |
| 20260904181505 | 61 | 132 | 0.0 | 5.0 | 0.00 | 0.40 | 0.40 | 90 | 1011.1 |
| 20260904180100 | 60 | 229 | 1.0 | 5.0 | 0.00 | 0.40 | 0.40 | 89 | 1011.0 |
| 20260904174602 | 60 | 246 | 1.0 | 5.0 | 0.00 | 0.40 | 0.40 | 90 | 1010.8 |
| 20260904173057 | 60 | 244 | 1.0 | 5.0 | 0.00 | 0.40 | 0.40 | 92 | 1010.7 |